SE Lincoln WX Station Historical Data
 
Daily Summary for August 17, 2019 Units:  English    Metric   Both
Daily Weekly Monthly Yearly Custom
  Current: High: Low: Average:
Temperature: 82.1 °F 82.2 °F 67.9 °F 72.4 °F
Dew Point: 70.5 °F 70.5 °F 65.5 °F 67.9 °F
Humidity: 68% 94% 64.3% 86%
Wind Speed: 5.3mph 7.7mph 0mph 1.9mph
Wind Gust: 6mph 17mph - -
WindSSE - - SE
Pressure: 29.77 in 29.83 in 29.73 in -
Precipitation: 0.01 in      
Historical Graphs
 
 
Tabular Data for August 17, 2019
Time Temperature Dew Point Pressure Wind Wind Speed Wind Gust Humidity Rainfall Rate (Hourly) solar
00:04 73.9 °F 70.1 °F 29.83 in East 1.6 mph 6 mph 88% 0.00 in 0 W/m2
00:09 73.9 °F 70.1 °F 29.83 in ENE 0.1 mph 3 mph 88% 0.00 in 0 W/m2
00:14 73.9 °F 70.1 °F 29.83 in ENE 0.3 mph 3 mph 88% 0.00 in 0 W/m2
00:19 73.9 °F 70.1 °F 29.83 in Calm   1 mph 88% 0.00 in 0 W/m2
00:24 73.9 °F 70.1 °F 29.83 in East 0.2 mph 2 mph 88% 0.00 in 0 W/m2
00:29 73.9 °F 70.3 °F 29.82 in East 1.8 mph 5 mph 88.6% 0.00 in 0 W/m2
00:34 73.8 °F 70.4 °F 29.81 in East 0.3 mph 2 mph 89% 0.00 in 0 W/m2
00:39 73.7 °F 70.3 °F 29.80 in East 0.8 mph 2 mph 89% 0.00 in 0 W/m2
00:44 73.7 °F 70.2 °F 29.78 in East 0.1 mph 1 mph 89% 0.00 in 0 W/m2
00:49 73.5 °F 70.1 °F 29.77 in East 0.8 mph 4 mph 89% 0.00 in 0 W/m2
00:54 73.3 °F 69.9 °F 29.78 in East 0.2 mph 4 mph 89% 0.00 in 0 W/m2
00:59 73.2 °F 69.8 °F 29.78 in East 0.3 mph 1 mph 89% 0.00 in 0 W/m2
01:04 73.1 °F 69.7 °F 29.75 in Calm     89.1% 0.00 in 0 W/m2
01:09 72.9 °F 69.8 °F 29.76 in East 1.8 mph 4 mph 90% 0.00 in 0 W/m2
01:14 72.8 °F 69.7 °F 29.76 in ENE 1.6 mph 5 mph 90% 0.00 in 0 W/m2
01:19 72.8 °F 69.7 °F 29.76 in Calm     90% 0.00 in 0 W/m2
01:24 72.7 °F 69.6 °F 29.74 in ENE 0.1 mph 1 mph 90% 0.00 in 0 W/m2
01:29 72.6 °F 69.5 °F 29.74 in ENE 1 mph 2 mph 90% 0.00 in 0 W/m2
01:34 72.4 °F 69.3 °F 29.75 in ENE 0.8 mph 4 mph 90% 0.00 in 0 W/m2
01:39 72.3 °F 69.3 °F 29.75 in Calm     90.2% 0.00 in 0 W/m2
01:44 72.2 °F 69.4 °F 29.75 in Calm     91% 0.00 in 0 W/m2
01:49 72.1 °F 69.3 °F 29.75 in Calm     91% 0.00 in 0 W/m2
01:54 72 °F 69.2 °F 29.75 in ENE 0.4 mph 2 mph 91% 0.00 in 0 W/m2
01:59 71.9 °F 69.2 °F 29.75 in ENE 0.3 mph 3 mph 91% 0.00 in 0 W/m2
02:04 71.9 °F 69.1 °F 29.75 in ENE 1.6 mph 5 mph 91% 0.00 in 0 W/m2
02:09 71.8 °F 69 °F 29.75 in Calm   2 mph 91% 0.00 in 0 W/m2
02:14 71.8 °F 69.3 °F 29.74 in Calm     92% 0.00 in 0 W/m2
02:19 71.7 °F 69.3 °F 29.74 in Calm     92% 0.00 in 0 W/m2
02:24 71.6 °F 69.2 °F 29.73 in ESE 0.1 mph 2 mph 92% 0.00 in 0 W/m2
02:29 71.5 °F 69.1 °F 29.73 in ESE 1.7 mph 4 mph 92% 0.00 in 0 W/m2
02:34 71.4 °F 69 °F 29.73 in ESE 1.7 mph 4 mph 92% 0.00 in 0 W/m2
02:39 71.3 °F 68.9 °F 29.74 in East 2 mph 5 mph 92% 0.00 in 0 W/m2
02:44 71.2 °F 68.8 °F 29.73 in East 2.6 mph 5 mph 92% 0.00 in 0 W/m2
02:49 71.1 °F 69 °F 29.74 in East 2.4 mph 6 mph 93% 0.00 in 0 W/m2
02:54 71.1 °F 69 °F 29.74 in East 3.7 mph 7 mph 93% 0.00 in 0 W/m2
02:59 71 °F 68.9 °F 29.76 in East 3.8 mph 7 mph 93% 0.00 in 0 W/m2
03:04 71 °F 68.9 °F 29.77 in SE 4.4 mph 8 mph 93.2% 0.00 in 0 W/m2
03:09 71 °F 69.2 °F 29.77 in SE 4.8 mph 15 mph 94% 0.00 in 0 W/m2
03:14 71.2 °F 69.4 °F 29.77 in SE 5.8 mph 15 mph 94% 0.00 in 0 W/m2
03:19 71.3 °F 69.5 °F 29.77 in SE 4.7 mph 11 mph 94% 0.00 in 0 W/m2
03:24 71.5 °F 69.7 °F 29.78 in SSE 7.7 mph 15 mph 94% 0.00 in 0 W/m2
03:29 71.3 °F 68.9 °F 29.78 in SSE 6.4 mph 17 mph 92.3% 0.00 in 0 W/m2
03:34 70.9 °F 68 °F 29.78 in SSE 2.9 mph 11 mph 90.5% 0.00 in 0 W/m2
03:39 70.7 °F 67.3 °F 29.77 in SE 2.9 mph 14 mph 89% 0.00 in 0 W/m2
03:44 70.5 °F 66.7 °F 29.77 in SSE 4.2 mph 14 mph 87.7% 0.00 in 0 W/m2
03:49 70.4 °F 66.4 °F 29.77 in SSE 4.7 mph 10 mph 87% 0.00 in 0 W/m2
03:54 70.3 °F 66.3 °F 29.78 in South 2.1 mph 7 mph 87% 0.00 in 0 W/m2
03:59 70.2 °F 66.2 °F 29.79 in South 2.5 mph 5 mph 87% 0.00 in 0 W/m2
04:04 70.1 °F 66.1 °F 29.80 in SSE 2.1 mph 7 mph 87% 0.00 in 0 W/m2
04:09 70.1 °F 66.1 °F 29.80 in SSW 1.8 mph 6 mph 87% 0.00 in 0 W/m2
04:14 70.1 °F 66.1 °F 29.80 in SSW 0.6 mph 3 mph 87% 0.00 in 0 W/m2
04:19 70 °F 66 °F 29.80 in SSE 1.6 mph 5 mph 87% 0.00 in 0 W/m2
04:24 70 °F 66.1 °F 29.80 in ESE 1.5 mph 4 mph 87.5% 0.00 in 0 W/m2
04:29 69.9 °F 66.2 °F 29.80 in ESE 1.5 mph 5 mph 88% 0.00 in 0 W/m2
04:34 69.9 °F 66.2 °F 29.80 in ESE 1.4 mph 5 mph 88% 0.00 in 0 W/m2
04:39 69.8 °F 66.1 °F 29.80 in ENE 0.1 mph 1 mph 88% 0.00 in 0 W/m2
04:44 69.8 °F 66.1 °F 29.79 in ENE 0.2 mph 1 mph 88% 0.00 in 0 W/m2
04:49 69.8 °F 66.1 °F 29.79 in ENE 0.3 mph 1 mph 88.3% 0.00 in 0 W/m2
04:54 69.7 °F 66.3 °F 29.79 in ENE 0.7 mph 4 mph 89% 0.00 in 0 W/m2
04:59 69.6 °F 66.2 °F 29.78 in ENE 0.2 mph 2 mph 89% 0.00 in 0 W/m2
05:04 69.5 °F 66.1 °F 29.78 in ENE 1.1 mph 4 mph 89% 0.00 in 0 W/m2
05:09 69.4 °F 66.3 °F 29.78 in Calm     89.9% 0.00 in 0 W/m2
05:14 69.4 °F 66.3 °F 29.77 in ENE 1.3 mph 4 mph 90% 0.00 in 0 W/m2
05:19 69.3 °F 66.3 °F 29.77 in Calm   1 mph 90% 0.00 in 0 W/m2
05:24 69.2 °F 66.2 °F 29.77 in Calm     90.1% 0.00 in 0 W/m2
05:29 69.1 °F 66.4 °F 29.76 in SE 1.3 mph 4 mph 91% 0.00 in 0 W/m2
05:34 69 °F 66.3 °F 29.77 in South 2.7 mph 6 mph 91% 0.00 in 0 W/m2
05:39 68.9 °F 66.2 °F 29.76 in SE 3.6 mph 9 mph 91% 0.00 in 0 W/m2
05:44 68.8 °F 66.3 °F 29.77 in SE 6.8 mph 15 mph 91.7% 0.00 in 0 W/m2
05:49 68.7 °F 66.3 °F 29.77 in SE 6 mph 16 mph 92% 0.00 in 0 W/m2
05:54 68.6 °F 66.2 °F 29.77 in SE 6.7 mph 16 mph 92% 0.00 in 0 W/m2
05:59 68.4 °F 66 °F 29.78 in SE 6.7 mph 17 mph 92% 0.00 in 0 W/m2
06:04 68.2 °F 65.8 °F 29.77 in SSE 4.8 mph 9 mph 92% 0.00 in 0 W/m2
06:09 68 °F 65.6 °F 29.77 in SSE 4.3 mph 9 mph 92% 0.00 in 0 W/m2
06:14 67.9 °F 65.5 °F 29.78 in SSE 3 mph 7 mph 92% 0.00 in 0 W/m2
06:19 67.9 °F 65.7 °F 29.78 in SSE 3.1 mph 7 mph 92.5% 0.00 in 0 W/m2
06:24 67.9 °F 65.8 °F 29.78 in South 2.9 mph 7 mph 93% 0.00 in 0 W/m2
06:29 67.9 °F 65.8 °F 29.78 in SSE 2.6 mph 8 mph 93% 0.00 in 0 W/m2
06:34 67.9 °F 65.8 °F 29.78 in SSE 4.7 mph 11 mph 93% 0.00 in 0 W/m2
06:39 68.1 °F 66 °F 29.78 in SE 4.5 mph 11 mph 93% 0.00 in 0 W/m2
06:44 68.2 °F 65.9 °F 29.78 in SSE 6 mph 11 mph 92.5% 0.00 in 0 W/m2
06:49 68.2 °F 65.8 °F 29.78 in SSE 4.1 mph 9 mph 92% 0.00 in 0 W/m2
06:54 68.3 °F 65.9 °F 29.78 in SSE 3.2 mph 11 mph 92% 0.00 in 0 W/m2
06:59 68.3 °F 65.9 °F 29.78 in SSE 4.4 mph 12 mph 92% 0.00 in 9 W/m2
07:04 68.4 °F 66 °F 29.78 in SSE 4.2 mph 10 mph 92% 0.00 in 11 W/m2
07:09 68.4 °F 66 °F 29.78 in SSE 3.5 mph 9 mph 92% 0.00 in 14 W/m2
07:14 68.5 °F 66.1 °F 29.78 in SSE 3.8 mph 8 mph 92% 0.00 in 18 W/m2
07:19 68.6 °F 66.2 °F 29.78 in SSE 3.8 mph 9 mph 92% 0.00 in 19 W/m2
07:24 68.7 °F 66.3 °F 29.78 in SSE 2 mph 8 mph 92% 0.00 in 26 W/m2
07:29 68.8 °F 66.4 °F 29.78 in South 3.2 mph 6 mph 92% 0.00 in 28 W/m2
07:34 68.8 °F 66.4 °F 29.79 in SSE 2.4 mph 8 mph 92% 0.01 in 33 W/m2
07:39 68.9 °F 66.5 °F 29.79 in South 1 mph 4 mph 92% 0.01 in 46 W/m2
07:44 69 °F 66.6 °F 29.79 in South 1.8 mph 5 mph 92% 0.01 in 63 W/m2
07:49 69 °F 66.6 °F 29.79 in SSE 2.9 mph 6 mph 92% 0.01 in 69 W/m2
07:54 69 °F 66.6 °F 29.78 in SSE 2.3 mph 7 mph 92% 0.01 in 69 W/m2
07:59 69 °F 66.6 °F 29.77 in SE 1.1 mph 4 mph 92% 0.01 in 74 W/m2
08:04 69 °F 66.6 °F 29.77 in SSE 1.6 mph 5 mph 92% 0.01 in 74 W/m2
08:09 69.1 °F 66.6 °F 29.78 in SSE 2.5 mph 7 mph 92% 0.01 in 81 W/m2
08:14 69.1 °F 66.7 °F 29.78 in South 2.7 mph 5 mph 92% 0.01 in 88 W/m2
08:19 69.1 °F 66.7 °F 29.78 in South 2.5 mph 6 mph 92% 0.01 in 91 W/m2
08:24 69.1 °F 66.7 °F 29.78 in South 2.6 mph 6 mph 92% 0.01 in 98 W/m2
08:29 69.2 °F 66.8 °F 29.78 in SSW 2.3 mph 6 mph 92% 0.01 in 109 W/m2
08:34 69.2 °F 66.8 °F 29.77 in South 1.4 mph 5 mph 92% 0.01 in 125 W/m2
08:39 69.3 °F 66.9 °F 29.77 in SSW 1.5 mph 3 mph 92% 0.00 in 137 W/m2
08:44 69.4 °F 67 °F 29.77 in Calm   3 mph 92% 0.00 in 155 W/m2
08:49 69.6 °F 67.1 °F 29.77 in South 0.3 mph 4 mph 91.7% 0.00 in 156 W/m2
08:54 69.7 °F 67 °F 29.77 in SSW 1.6 mph 6 mph 91% 0.00 in 167 W/m2
08:59 69.9 °F 67.2 °F 29.77 in SSE 0.2 mph 4 mph 91% 0.00 in 178 W/m2
09:04 70.1 °F 67.4 °F 29.77 in SSE 1.3 mph 6 mph 91% 0.00 in 192 W/m2
09:09 70.4 °F 67.5 °F 29.76 in SSW 2 mph 6 mph 90.7% 0.00 in 197 W/m2
09:14 70.5 °F 67.5 °F 29.77 in SSW 0.8 mph 6 mph 90% 0.00 in 236 W/m2
09:19 70.7 °F 67.6 °F 29.77 in South 1.5 mph 6 mph 89.7% 0.00 in 251 W/m2
09:24 71 °F 67.6 °F 29.77 in SW 2.1 mph 8 mph 89% 0.00 in 278 W/m2
09:29 71.3 °F 67.5 °F 29.77 in SW 1.7 mph 7 mph 87.9% 0.00 in 311 W/m2
09:34 71.7 °F 67.7 °F 29.77 in SW 0.6 mph 5 mph 87% 0.00 in 464 W/m2
09:39 72.3 °F 67.9 °F 29.77 in SSW 0.2 mph 6 mph 86.1% 0.00 in 489 W/m2
09:44 73 °F 68.3 °F 29.77 in South 0.1 mph 2 mph 85.3% 0.00 in 482 W/m2
09:49 73.8 °F 68.4 °F 29.76 in SSE 0.9 mph 5 mph 83.4% 0.00 in 487 W/m2
09:54 74.3 °F 68.3 °F 29.76 in South 0.5 mph 6 mph 81.6% 0.00 in 489 W/m2
09:59 75 °F 68.9 °F 29.76 in South 1.1 mph 6 mph 81.1% 0.00 in 512 W/m2
10:04 75.9 °F 69.2 °F 29.76 in SSE 0.4 mph 5 mph 79.8% 0.00 in 522 W/m2
10:09 76.6 °F 69.1 °F 29.76 in SSW 0.1 mph 2 mph 77.7% 0.00 in 534 W/m2
10:14 77.1 °F 68.8 °F 29.75 in Calm   2 mph 75.5% 0.00 in 541 W/m2
10:19 77.5 °F 68.6 °F 29.75 in SW 0.4 mph 4 mph 73.9% 0.00 in 555 W/m2
10:24 77.8 °F 68.4 °F 29.75 in SW 0.4 mph 4 mph 72.9% 0.00 in 566 W/m2
10:29 78.2 °F 68.6 °F 29.76 in SSW 0.3 mph 6 mph 72.4% 0.00 in 578 W/m2
10:34 78.8 °F 68.8 °F 29.76 in South 0.8 mph 6 mph 71.3% 0.00 in 589 W/m2
10:39 79.4 °F 68.8 °F 29.76 in SSE 0.5 mph 4 mph 69.9% 0.00 in 599 W/m2
10:44 80.1 °F 69.1 °F 29.76 in SSE 0.4 mph 6 mph 69.3% 0.00 in 608 W/m2
10:49 80.6 °F 68.5 °F 29.76 in SW 0.5 mph 6 mph 66.8% 0.00 in 621 W/m2
10:54 80.8 °F 68.9 °F 29.76 in South 0.7 mph 4 mph 67.1% 0.00 in 629 W/m2
10:59 81.1 °F 68.5 °F 29.76 in SSE 0.8 mph 6 mph 65.8% 0.00 in 640 W/m2
11:04 81 °F 68.7 °F 29.76 in SE 2.4 mph 7 mph 66.4% 0.00 in 649 W/m2
11:09 81 °F 68.7 °F 29.76 in SSE 1.8 mph 6 mph 66.3% 0.00 in 659 W/m2
11:14 81.5 °F 69.1 °F 29.76 in SSE 1.5 mph 7 mph 66% 0.00 in 666 W/m2
11:19 81.8 °F 69.1 °F 29.76 in SSE 0.3 mph 6 mph 65.5% 0.00 in 675 W/m2
11:24 82.1 °F 69.3 °F 29.76 in South 0.7 mph 7 mph 65.2% 0.00 in 684 W/m2
11:29 82.2 °F 69.3 °F 29.76 in SE 1.4 mph 10 mph 65.2% 0.00 in 694 W/m2
11:34 81.8 °F 68.6 °F 29.76 in South 3.2 mph 10 mph 64.3% 0.00 in 703 W/m2
11:39 81.8 °F 68.9 °F 29.77 in SSW 1 mph 10 mph 65% 0.00 in 707 W/m2
11:44 81.9 °F 69.8 °F 29.77 in SSE 4.2 mph 13 mph 66.8% 0.00 in 724 W/m2
11:49 81.9 °F 70.2 °F 29.77 in SSE 1.4 mph 11 mph 67.9% 0.00 in 740 W/m2
11:54 82 °F 69.8 °F 29.77 in South 0.5 mph 10 mph 66.6% 0.00 in 758 W/m2
11:59 82.1 °F 70.3 °F 29.77 in SSE 2.3 mph 9 mph 67.6% 0.00 in 777 W/m2
12:04 82.1 °F 70.4 °F 29.77 in SSE 4.1 mph 15 mph 67.6% 0.00 in 805 W/m2
12:09 82 °F 70.4 °F 29.77 in South 3.5 mph 10 mph 67.9% 0.00 in 770 W/m2
12:14 82.1 °F 70.2 °F 29.77 in South 2 mph 9 mph 67.5% 0.00 in 754 W/m2
12:15 82.1 °F 70.5 °F 29.77 in SSE 5.3 mph 6 mph 68% 0.00 in 749 W/m2
66th and South
Compliments of Weather Underground - 2 mb